sensor_id;sensor_type;location;lat;lon;timestamp;temperature;humidity
75621;DHT22;64574;48.506;-2.750;2023-05-24T00:00:56;13.70;61.80
75621;DHT22;64574;48.506;-2.750;2023-05-24T00:03:22;13.80;61.60
75621;DHT22;64574;48.506;-2.750;2023-05-24T00:05:47;13.90;61.60
75621;DHT22;64574;48.506;-2.750;2023-05-24T00:08:13;13.70;62.00
75621;DHT22;64574;48.506;-2.750;2023-05-24T00:10:41;13.70;62.20
75621;DHT22;64574;48.506;-2.750;2023-05-24T00:13:06;13.70;62.20
75621;DHT22;64574;48.506;-2.750;2023-05-24T00:15:32;13.70;62.00
75621;DHT22;64574;48.506;-2.750;2023-05-24T00:17:58;13.70;61.80
75621;DHT22;64574;48.506;-2.750;2023-05-24T00:20:23;13.50;61.90
75621;DHT22;64574;48.506;-2.750;2023-05-24T00:22:49;13.50;61.70
75621;DHT22;64574;48.506;-2.750;2023-05-24T00:25:15;13.60;61.40
75621;DHT22;64574;48.506;-2.750;2023-05-24T00:27:40;13.50;61.20
75621;DHT22;64574;48.506;-2.750;2023-05-24T00:30:06;13.50;60.80
75621;DHT22;64574;48.506;-2.750;2023-05-24T00:32:32;13.60;60.20
75621;DHT22;64574;48.506;-2.750;2023-05-24T00:34:58;13.50;60.30
75621;DHT22;64574;48.506;-2.750;2023-05-24T00:37:23;13.50;60.20
75621;DHT22;64574;48.506;-2.750;2023-05-24T00:39:49;13.60;60.00
75621;DHT22;64574;48.506;-2.750;2023-05-24T00:42:14;13.50;60.00
75621;DHT22;64574;48.506;-2.750;2023-05-24T00:44:40;13.40;60.30
75621;DHT22;64574;48.506;-2.750;2023-05-24T00:47:06;13.50;59.60
75621;DHT22;64574;48.506;-2.750;2023-05-24T00:49:32;13.50;59.60
75621;DHT22;64574;48.506;-2.750;2023-05-24T00:51:58;13.50;59.40
75621;DHT22;64574;48.506;-2.750;2023-05-24T00:54:24;13.50;59.00
75621;DHT22;64574;48.506;-2.750;2023-05-24T00:56:51;13.50;58.90
75621;DHT22;64574;48.506;-2.750;2023-05-24T00:59:18;13.50;58.60
75621;DHT22;64574;48.506;-2.750;2023-05-24T01:01:44;13.50;58.30
75621;DHT22;64574;48.506;-2.750;2023-05-24T01:04:12;13.40;58.40
75621;DHT22;64574;48.506;-2.750;2023-05-24T01:09:28;13.40;58.00
75621;DHT22;64574;48.506;-2.750;2023-05-24T01:12:09;13.40;58.10
75621;DHT22;64574;48.506;-2.750;2023-05-24T01:17:21;13.40;58.40
75621;DHT22;64574;48.506;-2.750;2023-05-24T01:20:05;13.30;58.30
75621;DHT22;64574;48.506;-2.750;2023-05-24T01:22:39;13.30;58.60
75621;DHT22;64574;48.506;-2.750;2023-05-24T01:28:11;13.30;59.40
75621;DHT22;64574;48.506;-2.750;2023-05-24T01:30:40;13.30;59.60
75621;DHT22;64574;48.506;-2.750;2023-05-24T01:33:06;13.30;59.70
75621;DHT22;64574;48.506;-2.750;2023-05-24T01:35:32;13.30;59.50
75621;DHT22;64574;48.506;-2.750;2023-05-24T01:38:07;13.30;59.60
75621;DHT22;64574;48.506;-2.750;2023-05-24T01:40:34;13.10;60.00
75621;DHT22;64574;48.506;-2.750;2023-05-24T01:49:05;13.20;59.40
75621;DHT22;64574;48.506;-2.750;2023-05-24T01:51:39;13.10;59.60
75621;DHT22;64574;48.506;-2.750;2023-05-24T01:54:05;13.10;59.60
75621;DHT22;64574;48.506;-2.750;2023-05-24T01:56:32;13.10;59.60
75621;DHT22;64574;48.506;-2.750;2023-05-24T01:58:59;13.10;59.50
75621;DHT22;64574;48.506;-2.750;2023-05-24T02:01:25;13.10;59.60
75621;DHT22;64574;48.506;-2.750;2023-05-24T02:03:51;13.10;59.40
75621;DHT22;64574;48.506;-2.750;2023-05-24T02:06:17;13.10;59.70
75621;DHT22;64574;48.506;-2.750;2023-05-24T02:08:42;13.00;60.10
75621;DHT22;64574;48.506;-2.750;2023-05-24T02:11:08;13.10;60.00
75621;DHT22;64574;48.506;-2.750;2023-05-24T02:13:34;13.10;59.90
75621;DHT22;64574;48.506;-2.750;2023-05-24T02:15:59;13.10;59.90
75621;DHT22;64574;48.506;-2.750;2023-05-24T02:18:25;13.10;60.10
75621;DHT22;64574;48.506;-2.750;2023-05-24T02:20:51;13.10;60.20
75621;DHT22;64574;48.506;-2.750;2023-05-24T02:23:16;13.00;60.40
75621;DHT22;64574;48.506;-2.750;2023-05-24T02:25:42;13.10;60.50
75621;DHT22;64574;48.506;-2.750;2023-05-24T02:28:08;13.10;60.40
75621;DHT22;64574;48.506;-2.750;2023-05-24T02:30:33;13.00;60.30
75621;DHT22;64574;48.506;-2.750;2023-05-24T02:32:59;12.90;60.70
75621;DHT22;64574;48.506;-2.750;2023-05-24T02:35:25;12.90;60.70
75621;DHT22;64574;48.506;-2.750;2023-05-24T02:37:51;13.00;60.70
75621;DHT22;64574;48.506;-2.750;2023-05-24T02:40:16;13.00;61.10
75621;DHT22;64574;48.506;-2.750;2023-05-24T02:42:42;13.00;61.40
75621;DHT22;64574;48.506;-2.750;2023-05-24T02:45:08;13.00;61.90
75621;DHT22;64574;48.506;-2.750;2023-05-24T02:47:33;13.00;62.40
75621;DHT22;64574;48.506;-2.750;2023-05-24T02:49:59;13.00;63.10
75621;DHT22;64574;48.506;-2.750;2023-05-24T02:52:24;12.90;63.60
75621;DHT22;64574;48.506;-2.750;2023-05-24T02:54:51;12.90;64.00
75621;DHT22;64574;48.506;-2.750;2023-05-24T02:57:17;12.80;64.00
75621;DHT22;64574;48.506;-2.750;2023-05-24T02:59:42;12.80;64.30
75621;DHT22;64574;48.506;-2.750;2023-05-24T03:02:08;12.90;64.30
75621;DHT22;64574;48.506;-2.750;2023-05-24T03:04:34;12.90;64.40
75621;DHT22;64574;48.506;-2.750;2023-05-24T03:07:00;13.00;64.60
75621;DHT22;64574;48.506;-2.750;2023-05-24T03:09:25;13.00;64.70
75621;DHT22;64574;48.506;-2.750;2023-05-24T03:11:52;13.00;64.50
75621;DHT22;64574;48.506;-2.750;2023-05-24T03:14:19;12.90;64.50
75621;DHT22;64574;48.506;-2.750;2023-05-24T03:16:47;12.90;64.50
75621;DHT22;64574;48.506;-2.750;2023-05-24T03:19:13;12.90;64.70
75621;DHT22;64574;48.506;-2.750;2023-05-24T03:21:39;13.00;64.30
75621;DHT22;64574;48.506;-2.750;2023-05-24T03:24:04;12.90;64.30
75621;DHT22;64574;48.506;-2.750;2023-05-24T03:26:30;12.90;64.70
75621;DHT22;64574;48.506;-2.750;2023-05-24T03:28:56;12.90;65.10
75621;DHT22;64574;48.506;-2.750;2023-05-24T03:31:22;12.90;65.60
75621;DHT22;64574;48.506;-2.750;2023-05-24T03:33:51;13.00;66.00
75621;DHT22;64574;48.506;-2.750;2023-05-24T03:36:17;12.90;66.20
75621;DHT22;64574;48.506;-2.750;2023-05-24T03:38:42;12.90;66.30
75621;DHT22;64574;48.506;-2.750;2023-05-24T03:41:08;12.80;66.60
75621;DHT22;64574;48.506;-2.750;2023-05-24T03:43:34;12.80;66.60
75621;DHT22;64574;48.506;-2.750;2023-05-24T03:45:59;12.80;66.60
75621;DHT22;64574;48.506;-2.750;2023-05-24T03:48:25;12.90;66.60
75621;DHT22;64574;48.506;-2.750;2023-05-24T03:50:51;12.90;66.70
75621;DHT22;64574;48.506;-2.750;2023-05-24T03:53:16;12.90;66.40
75621;DHT22;64574;48.506;-2.750;2023-05-24T03:55:42;12.80;66.60
75621;DHT22;64574;48.506;-2.750;2023-05-24T03:58:08;12.80;66.50
75621;DHT22;64574;48.506;-2.750;2023-05-24T04:00:33;12.70;65.90
75621;DHT22;64574;48.506;-2.750;2023-05-24T04:02:59;12.70;65.80
75621;DHT22;64574;48.506;-2.750;2023-05-24T04:05:25;12.80;65.70
75621;DHT22;64574;48.506;-2.750;2023-05-24T04:07:54;12.80;65.90
75621;DHT22;64574;48.506;-2.750;2023-05-24T04:10:19;12.90;66.40
75621;DHT22;64574;48.506;-2.750;2023-05-24T04:12:45;12.80;66.90
75621;DHT22;64574;48.506;-2.750;2023-05-24T04:15:11;12.80;67.00
75621;DHT22;64574;48.506;-2.750;2023-05-24T04:17:43;12.80;66.50
75621;DHT22;64574;48.506;-2.750;2023-05-24T04:20:10;12.70;66.90
75621;DHT22;64574;48.506;-2.750;2023-05-24T04:22:35;12.70;67.20
75621;DHT22;64574;48.506;-2.750;2023-05-24T04:25:02;12.80;67.20
75621;DHT22;64574;48.506;-2.750;2023-05-24T04:27:28;12.70;67.50
75621;DHT22;64574;48.506;-2.750;2023-05-24T04:29:54;12.70;67.90
75621;DHT22;64574;48.506;-2.750;2023-05-24T04:32:20;12.60;68.10
75621;DHT22;64574;48.506;-2.750;2023-05-24T04:34:48;12.70;67.80
75621;DHT22;64574;48.506;-2.750;2023-05-24T04:37:14;12.70;67.60
75621;DHT22;64574;48.506;-2.750;2023-05-24T04:39:44;12.70;67.50
75621;DHT22;64574;48.506;-2.750;2023-05-24T04:42:11;12.80;67.20
75621;DHT22;64574;48.506;-2.750;2023-05-24T04:44:39;12.70;67.00
75621;DHT22;64574;48.506;-2.750;2023-05-24T04:47:05;12.70;66.80
75621;DHT22;64574;48.506;-2.750;2023-05-24T04:49:30;12.70;66.70
75621;DHT22;64574;48.506;-2.750;2023-05-24T04:51:56;12.80;66.30
75621;DHT22;64574;48.506;-2.750;2023-05-24T04:54:22;12.80;66.20
75621;DHT22;64574;48.506;-2.750;2023-05-24T04:56:49;12.80;65.90
75621;DHT22;64574;48.506;-2.750;2023-05-24T04:59:14;12.80;65.70
75621;DHT22;64574;48.506;-2.750;2023-05-24T05:01:40;12.80;65.50
75621;DHT22;64574;48.506;-2.750;2023-05-24T05:04:05;12.80;65.60
75621;DHT22;64574;48.506;-2.750;2023-05-24T05:06:32;12.80;65.70
75621;DHT22;64574;48.506;-2.750;2023-05-24T05:09:04;12.80;65.50
75621;DHT22;64574;48.506;-2.750;2023-05-24T05:11:30;12.80;65.60
75621;DHT22;64574;48.506;-2.750;2023-05-24T05:13:56;12.80;65.70
75621;DHT22;64574;48.506;-2.750;2023-05-24T05:16:21;12.90;65.90
75621;DHT22;64574;48.506;-2.750;2023-05-24T05:18:47;12.90;65.60
75621;DHT22;64574;48.506;-2.750;2023-05-24T05:21:12;12.90;65.60
75621;DHT22;64574;48.506;-2.750;2023-05-24T05:23:38;12.90;65.70
75621;DHT22;64574;48.506;-2.750;2023-05-24T05:26:04;12.90;65.70
75621;DHT22;64574;48.506;-2.750;2023-05-24T05:28:31;13.00;65.40
75621;DHT22;64574;48.506;-2.750;2023-05-24T05:30:57;13.00;65.30
75621;DHT22;64574;48.506;-2.750;2023-05-24T05:33:23;13.00;65.50
75621;DHT22;64574;48.506;-2.750;2023-05-24T05:35:49;13.00;65.50
75621;DHT22;64574;48.506;-2.750;2023-05-24T05:38:14;13.00;65.00
75621;DHT22;64574;48.506;-2.750;2023-05-24T05:40:40;13.10;65.20
75621;DHT22;64574;48.506;-2.750;2023-05-24T05:43:06;13.10;64.80
75621;DHT22;64574;48.506;-2.750;2023-05-24T05:45:33;13.10;65.00
75621;DHT22;64574;48.506;-2.750;2023-05-24T05:47:59;13.10;65.00
75621;DHT22;64574;48.506;-2.750;2023-05-24T05:50:24;13.10;64.70
75621;DHT22;64574;48.506;-2.750;2023-05-24T05:52:50;13.10;64.60
75621;DHT22;64574;48.506;-2.750;2023-05-24T05:55:15;13.20;64.30
75621;DHT22;64574;48.506;-2.750;2023-05-24T05:57:41;13.30;64.30
75621;DHT22;64574;48.506;-2.750;2023-05-24T06:00:08;13.30;64.30
75621;DHT22;64574;48.506;-2.750;2023-05-24T06:02:34;13.30;64.20
75621;DHT22;64574;48.506;-2.750;2023-05-24T06:04:59;13.30;63.90
75621;DHT22;64574;48.506;-2.750;2023-05-24T06:07:25;13.30;63.20
75621;DHT22;64574;48.506;-2.750;2023-05-24T06:09:50;13.40;63.30
75621;DHT22;64574;48.506;-2.750;2023-05-24T06:12:16;13.40;63.20
75621;DHT22;64574;48.506;-2.750;2023-05-24T06:14:42;13.40;63.10
75621;DHT22;64574;48.506;-2.750;2023-05-24T06:17:07;13.40;62.40
75621;DHT22;64574;48.506;-2.750;2023-05-24T06:19:33;13.40;60.60
75621;DHT22;64574;48.506;-2.750;2023-05-24T06:21:59;13.40;60.80
75621;DHT22;64574;48.506;-2.750;2023-05-24T06:24:25;13.50;61.20
75621;DHT22;64574;48.506;-2.750;2023-05-24T06:26:53;13.50;61.70
75621;DHT22;64574;48.506;-2.750;2023-05-24T06:29:19;13.50;61.80
75621;DHT22;64574;48.506;-2.750;2023-05-24T06:31:46;13.50;61.50
75621;DHT22;64574;48.506;-2.750;2023-05-24T06:34:15;13.60;62.10
75621;DHT22;64574;48.506;-2.750;2023-05-24T06:36:45;13.60;61.00
75621;DHT22;64574;48.506;-2.750;2023-05-24T06:39:13;13.50;60.90
75621;DHT22;64574;48.506;-2.750;2023-05-24T06:41:39;13.70;61.10
75621;DHT22;64574;48.506;-2.750;2023-05-24T06:44:05;13.70;61.00
75621;DHT22;64574;48.506;-2.750;2023-05-24T06:46:31;13.70;59.90
75621;DHT22;64574;48.506;-2.750;2023-05-24T06:48:57;13.60;59.90
75621;DHT22;64574;48.506;-2.750;2023-05-24T06:51:22;13.80;59.80
75621;DHT22;64574;48.506;-2.750;2023-05-24T06:53:48;13.90;59.90
75621;DHT22;64574;48.506;-2.750;2023-05-24T06:56:14;13.90;59.10
75621;DHT22;64574;48.506;-2.750;2023-05-24T06:58:40;13.90;59.60
75621;DHT22;64574;48.506;-2.750;2023-05-24T07:01:06;13.90;59.90
75621;DHT22;64574;48.506;-2.750;2023-05-24T07:03:33;13.90;60.30
75621;DHT22;64574;48.506;-2.750;2023-05-24T07:05:59;13.90;60.70
75621;DHT22;64574;48.506;-2.750;2023-05-24T07:08:25;13.90;60.00
75621;DHT22;64574;48.506;-2.750;2023-05-24T07:10:51;13.80;60.90
75621;DHT22;64574;48.506;-2.750;2023-05-24T07:13:17;13.90;61.10
75621;DHT22;64574;48.506;-2.750;2023-05-24T07:15:45;13.90;61.70
75621;DHT22;64574;48.506;-2.750;2023-05-24T07:18:11;13.90;62.30
75621;DHT22;64574;48.506;-2.750;2023-05-24T07:20:37;13.90;62.40
75621;DHT22;64574;48.506;-2.750;2023-05-24T07:23:02;13.90;62.60
75621;DHT22;64574;48.506;-2.750;2023-05-24T07:25:29;14.00;62.80
75621;DHT22;64574;48.506;-2.750;2023-05-24T07:27:54;14.10;62.70
75621;DHT22;64574;48.506;-2.750;2023-05-24T07:30:20;14.00;62.70
75621;DHT22;64574;48.506;-2.750;2023-05-24T07:32:46;14.00;62.70
75621;DHT22;64574;48.506;-2.750;2023-05-24T07:35:12;14.00;63.00
75621;DHT22;64574;48.506;-2.750;2023-05-24T07:37:38;13.90;63.10
75621;DHT22;64574;48.506;-2.750;2023-05-24T07:40:05;14.00;63.40
75621;DHT22;64574;48.506;-2.750;2023-05-24T07:42:34;14.20;63.90
75621;DHT22;64574;48.506;-2.750;2023-05-24T07:45:00;14.10;64.10
75621;DHT22;64574;48.506;-2.750;2023-05-24T07:47:26;14.20;63.70
75621;DHT22;64574;48.506;-2.750;2023-05-24T07:49:52;14.10;62.60
75621;DHT22;64574;48.506;-2.750;2023-05-24T07:52:18;14.10;63.20
75621;DHT22;64574;48.506;-2.750;2023-05-24T07:54:44;14.10;62.70
75621;DHT22;64574;48.506;-2.750;2023-05-24T07:57:11;14.10;62.50
75621;DHT22;64574;48.506;-2.750;2023-05-24T07:59:37;14.10;62.00
75621;DHT22;64574;48.506;-2.750;2023-05-24T08:02:03;14.10;61.60
75621;DHT22;64574;48.506;-2.750;2023-05-24T08:04:32;14.10;62.20
75621;DHT22;64574;48.506;-2.750;2023-05-24T08:06:58;14.20;62.70
75621;DHT22;64574;48.506;-2.750;2023-05-24T08:09:26;14.10;62.80
75621;DHT22;64574;48.506;-2.750;2023-05-24T08:11:54;14.30;62.30
75621;DHT22;64574;48.506;-2.750;2023-05-24T08:14:21;14.40;62.10
75621;DHT22;64574;48.506;-2.750;2023-05-24T08:16:46;14.40;62.50
75621;DHT22;64574;48.506;-2.750;2023-05-24T08:19:12;14.60;62.30
75621;DHT22;64574;48.506;-2.750;2023-05-24T08:21:37;14.50;62.60
75621;DHT22;64574;48.506;-2.750;2023-05-24T08:24:03;14.50;62.50
75621;DHT22;64574;48.506;-2.750;2023-05-24T08:26:28;14.40;62.70
75621;DHT22;64574;48.506;-2.750;2023-05-24T08:28:54;14.50;63.00
75621;DHT22;64574;48.506;-2.750;2023-05-24T08:31:20;14.50;62.20
75621;DHT22;64574;48.506;-2.750;2023-05-24T08:33:46;14.50;62.40
75621;DHT22;64574;48.506;-2.750;2023-05-24T08:36:16;14.40;62.10
75621;DHT22;64574;48.506;-2.750;2023-05-24T08:38:41;14.40;62.30
75621;DHT22;64574;48.506;-2.750;2023-05-24T08:41:10;14.50;62.20
75621;DHT22;64574;48.506;-2.750;2023-05-24T08:43:37;14.60;62.50
75621;DHT22;64574;48.506;-2.750;2023-05-24T08:46:03;14.70;62.20
75621;DHT22;64574;48.506;-2.750;2023-05-24T08:48:30;14.70;62.30
75621;DHT22;64574;48.506;-2.750;2023-05-24T08:50:57;14.50;62.20
75621;DHT22;64574;48.506;-2.750;2023-05-24T08:53:23;14.50;62.00
75621;DHT22;64574;48.506;-2.750;2023-05-24T08:55:49;14.50;61.60
75621;DHT22;64574;48.506;-2.750;2023-05-24T08:58:19;14.50;62.10
75621;DHT22;64574;48.506;-2.750;2023-05-24T09:00:45;14.60;62.10
75621;DHT22;64574;48.506;-2.750;2023-05-24T09:03:12;14.60;62.40
75621;DHT22;64574;48.506;-2.750;2023-05-24T09:05:39;14.70;62.20
75621;DHT22;64574;48.506;-2.750;2023-05-24T09:08:06;14.60;61.70
75621;DHT22;64574;48.506;-2.750;2023-05-24T09:10:32;14.50;61.50
75621;DHT22;64574;48.506;-2.750;2023-05-24T09:13:01;14.60;61.80
75621;DHT22;64574;48.506;-2.750;2023-05-24T09:15:27;14.80;61.90
75621;DHT22;64574;48.506;-2.750;2023-05-24T09:17:52;14.70;62.00
75621;DHT22;64574;48.506;-2.750;2023-05-24T09:20:20;14.60;61.70
75621;DHT22;64574;48.506;-2.750;2023-05-24T09:22:50;14.60;62.40
75621;DHT22;64574;48.506;-2.750;2023-05-24T09:25:17;14.60;62.10
75621;DHT22;64574;48.506;-2.750;2023-05-24T09:27:49;14.60;61.50
75621;DHT22;64574;48.506;-2.750;2023-05-24T09:30:15;14.70;61.00
75621;DHT22;64574;48.506;-2.750;2023-05-24T09:32:59;14.80;61.40
75621;DHT22;64574;48.506;-2.750;2023-05-24T09:35:26;14.90;61.20
75621;DHT22;64574;48.506;-2.750;2023-05-24T09:37:55;14.70;61.50
75621;DHT22;64574;48.506;-2.750;2023-05-24T09:40:22;14.60;61.20
75621;DHT22;64574;48.506;-2.750;2023-05-24T09:42:49;14.60;61.90
75621;DHT22;64574;48.506;-2.750;2023-05-24T09:45:27;14.60;61.30
75621;DHT22;64574;48.506;-2.750;2023-05-24T09:47:53;14.70;61.20
75621;DHT22;64574;48.506;-2.750;2023-05-24T09:50:18;14.80;59.80
75621;DHT22;64574;48.506;-2.750;2023-05-24T09:52:44;14.80;60.80
75621;DHT22;64574;48.506;-2.750;2023-05-24T09:55:17;14.60;61.40
75621;DHT22;64574;48.506;-2.750;2023-05-24T09:57:51;14.70;61.20
75621;DHT22;64574;48.506;-2.750;2023-05-24T10:00:21;14.50;60.80
75621;DHT22;64574;48.506;-2.750;2023-05-24T10:03:00;14.60;61.40
75621;DHT22;64574;48.506;-2.750;2023-05-24T10:05:27;14.90;60.70
75621;DHT22;64574;48.506;-2.750;2023-05-24T10:07:53;14.80;60.90
75621;DHT22;64574;48.506;-2.750;2023-05-24T10:10:19;15.00;60.80
75621;DHT22;64574;48.506;-2.750;2023-05-24T10:12:46;15.00;60.60
75621;DHT22;64574;48.506;-2.750;2023-05-24T10:15:11;15.00;59.90
75621;DHT22;64574;48.506;-2.750;2023-05-24T10:17:37;15.00;59.20
75621;DHT22;64574;48.506;-2.750;2023-05-24T10:20:03;15.00;59.90
75621;DHT22;64574;48.506;-2.750;2023-05-24T10:22:32;14.90;60.40
75621;DHT22;64574;48.506;-2.750;2023-05-24T10:25:03;14.90;60.50
75621;DHT22;64574;48.506;-2.750;2023-05-24T10:27:30;15.00;60.20
75621;DHT22;64574;48.506;-2.750;2023-05-24T10:32:42;15.30;59.30
75621;DHT22;64574;48.506;-2.750;2023-05-24T10:35:09;15.00;59.10
75621;DHT22;64574;48.506;-2.750;2023-05-24T10:37:40;15.00;57.80
75621;DHT22;64574;48.506;-2.750;2023-05-24T10:40:07;15.10;57.00
75621;DHT22;64574;48.506;-2.750;2023-05-24T10:42:42;15.20;57.60
75621;DHT22;64574;48.506;-2.750;2023-05-24T10:47:52;15.30;58.10
75621;DHT22;64574;48.506;-2.750;2023-05-24T10:50:20;15.40;59.00
75621;DHT22;64574;48.506;-2.750;2023-05-24T10:52:48;15.40;59.10
75621;DHT22;64574;48.506;-2.750;2023-05-24T10:55:14;15.30;59.50
75621;DHT22;64574;48.506;-2.750;2023-05-24T10:57:39;15.40;60.10
75621;DHT22;64574;48.506;-2.750;2023-05-24T11:03:09;15.20;58.90
75621;DHT22;64574;48.506;-2.750;2023-05-24T11:08:12;15.20;59.50
75621;DHT22;64574;48.506;-2.750;2023-05-24T11:10:37;15.00;59.80
75621;DHT22;64574;48.506;-2.750;2023-05-24T11:13:06;15.20;60.40
75621;DHT22;64574;48.506;-2.750;2023-05-24T11:15:32;15.20;60.20
75621;DHT22;64574;48.506;-2.750;2023-05-24T11:20:40;15.20;59.40
75621;DHT22;64574;48.506;-2.750;2023-05-24T11:23:07;15.30;60.00
75621;DHT22;64574;48.506;-2.750;2023-05-24T11:25:37;15.30;60.30
75621;DHT22;64574;48.506;-2.750;2023-05-24T11:28:06;15.40;60.30
75621;DHT22;64574;48.506;-2.750;2023-05-24T11:30:37;15.40;61.10
75621;DHT22;64574;48.506;-2.750;2023-05-24T11:33:03;15.40;60.30
75621;DHT22;64574;48.506;-2.750;2023-05-24T11:35:28;15.40;59.80
75621;DHT22;64574;48.506;-2.750;2023-05-24T11:37:55;15.20;60.00
75621;DHT22;64574;48.506;-2.750;2023-05-24T11:40:22;15.40;59.70
75621;DHT22;64574;48.506;-2.750;2023-05-24T11:42:48;15.30;59.40
75621;DHT22;64574;48.506;-2.750;2023-05-24T11:45:16;15.20;59.90
75621;DHT22;64574;48.506;-2.750;2023-05-24T11:47:43;15.40;58.80
75621;DHT22;64574;48.506;-2.750;2023-05-24T11:50:09;15.30;58.60
75621;DHT22;64574;48.506;-2.750;2023-05-24T11:52:39;15.30;59.80
75621;DHT22;64574;48.506;-2.750;2023-05-24T11:55:05;15.40;59.30
75621;DHT22;64574;48.506;-2.750;2023-05-24T11:57:38;15.40;59.10
75621;DHT22;64574;48.506;-2.750;2023-05-24T12:00:06;15.50;58.80
75621;DHT22;64574;48.506;-2.750;2023-05-24T12:02:35;15.50;58.40
75621;DHT22;64574;48.506;-2.750;2023-05-24T12:05:09;15.50;58.30
75621;DHT22;64574;48.506;-2.750;2023-05-24T12:07:36;15.60;58.50
75621;DHT22;64574;48.506;-2.750;2023-05-24T12:10:05;15.40;58.60
75621;DHT22;64574;48.506;-2.750;2023-05-24T12:12:32;15.60;58.90
75621;DHT22;64574;48.506;-2.750;2023-05-24T12:14:58;15.60;59.30
75621;DHT22;64574;48.506;-2.750;2023-05-24T12:17:24;15.60;59.00
75621;DHT22;64574;48.506;-2.750;2023-05-24T12:19:50;15.70;59.50
75621;DHT22;64574;48.506;-2.750;2023-05-24T12:22:16;15.50;59.00
75621;DHT22;64574;48.506;-2.750;2023-05-24T12:24:42;15.50;58.90
75621;DHT22;64574;48.506;-2.750;2023-05-24T12:27:08;15.40;58.90
75621;DHT22;64574;48.506;-2.750;2023-05-24T12:29:37;15.40;59.00
75621;DHT22;64574;48.506;-2.750;2023-05-24T12:32:04;15.60;59.30
75621;DHT22;64574;48.506;-2.750;2023-05-24T12:34:31;15.50;58.00
75621;DHT22;64574;48.506;-2.750;2023-05-24T12:36:58;15.40;59.80
75621;DHT22;64574;48.506;-2.750;2023-05-24T12:39:25;15.60;60.50
75621;DHT22;64574;48.506;-2.750;2023-05-24T12:42:00;15.80;59.10
75621;DHT22;64574;48.506;-2.750;2023-05-24T12:44:31;15.60;60.40
75621;DHT22;64574;48.506;-2.750;2023-05-24T12:46:57;15.70;58.90
75621;DHT22;64574;48.506;-2.750;2023-05-24T12:49:24;15.60;58.60
75621;DHT22;64574;48.506;-2.750;2023-05-24T12:51:52;15.60;59.00
75621;DHT22;64574;48.506;-2.750;2023-05-24T12:54:21;15.80;59.40
75621;DHT22;64574;48.506;-2.750;2023-05-24T12:56:48;15.80;59.30
75621;DHT22;64574;48.506;-2.750;2023-05-24T12:59:13;15.80;59.60
75621;DHT22;64574;48.506;-2.750;2023-05-24T13:01:39;15.80;60.70
75621;DHT22;64574;48.506;-2.750;2023-05-24T13:04:05;15.80;60.90
75621;DHT22;64574;48.506;-2.750;2023-05-24T13:06:31;16.00;60.30
75621;DHT22;64574;48.506;-2.750;2023-05-24T13:08:57;16.00;60.10
75621;DHT22;64574;48.506;-2.750;2023-05-24T13:11:23;15.80;60.70
75621;DHT22;64574;48.506;-2.750;2023-05-24T13:13:50;15.40;61.40
75621;DHT22;64574;48.506;-2.750;2023-05-24T13:16:16;15.40;60.80
75621;DHT22;64574;48.506;-2.750;2023-05-24T13:18:42;15.40;60.80
75621;DHT22;64574;48.506;-2.750;2023-05-24T13:21:08;15.80;60.90
75621;DHT22;64574;48.506;-2.750;2023-05-24T13:23:34;15.90;60.70
75621;DHT22;64574;48.506;-2.750;2023-05-24T13:26:04;16.00;60.40
75621;DHT22;64574;48.506;-2.750;2023-05-24T13:28:32;15.80;60.90
75621;DHT22;64574;48.506;-2.750;2023-05-24T13:30:58;16.00;60.00
75621;DHT22;64574;48.506;-2.750;2023-05-24T13:33:24;16.00;59.90
75621;DHT22;64574;48.506;-2.750;2023-05-24T13:35:52;16.00;59.70
75621;DHT22;64574;48.506;-2.750;2023-05-24T13:38:19;15.80;61.00
75621;DHT22;64574;48.506;-2.750;2023-05-24T13:40:45;16.00;59.60
75621;DHT22;64574;48.506;-2.750;2023-05-24T13:43:11;16.00;59.00
75621;DHT22;64574;48.506;-2.750;2023-05-24T13:45:37;15.90;58.70
75621;DHT22;64574;48.506;-2.750;2023-05-24T13:48:03;16.00;59.00
75621;DHT22;64574;48.506;-2.750;2023-05-24T13:50:31;15.90;59.30
75621;DHT22;64574;48.506;-2.750;2023-05-24T13:52:58;16.00;58.90
75621;DHT22;64574;48.506;-2.750;2023-05-24T13:55:27;16.10;59.20
75621;DHT22;64574;48.506;-2.750;2023-05-24T13:57:54;16.30;58.40
75621;DHT22;64574;48.506;-2.750;2023-05-24T14:00:21;16.20;58.90
75621;DHT22;64574;48.506;-2.750;2023-05-24T14:02:47;16.30;58.30
75621;DHT22;64574;48.506;-2.750;2023-05-24T14:05:13;16.40;58.80
75621;DHT22;64574;48.506;-2.750;2023-05-24T14:07:39;16.40;58.20
75621;DHT22;64574;48.506;-2.750;2023-05-24T14:10:05;16.10;59.50
75621;DHT22;64574;48.506;-2.750;2023-05-24T14:12:31;16.00;59.30
75621;DHT22;64574;48.506;-2.750;2023-05-24T14:14:57;15.80;59.70
75621;DHT22;64574;48.506;-2.750;2023-05-24T14:17:23;16.00;59.00
75621;DHT22;64574;48.506;-2.750;2023-05-24T14:19:49;16.10;58.00
75621;DHT22;64574;48.506;-2.750;2023-05-24T14:22:14;16.20;58.00
75621;DHT22;64574;48.506;-2.750;2023-05-24T14:24:40;16.40;58.00
75621;DHT22;64574;48.506;-2.750;2023-05-24T14:27:05;16.40;57.50
75621;DHT22;64574;48.506;-2.750;2023-05-24T14:29:31;16.20;57.30
75621;DHT22;64574;48.506;-2.750;2023-05-24T14:31:57;16.00;57.40
75621;DHT22;64574;48.506;-2.750;2023-05-24T14:34:23;16.10;57.40
75621;DHT22;64574;48.506;-2.750;2023-05-24T14:36:48;16.10;57.40
75621;DHT22;64574;48.506;-2.750;2023-05-24T14:39:14;16.20;57.50
75621;DHT22;64574;48.506;-2.750;2023-05-24T14:41:40;16.50;57.40
75621;DHT22;64574;48.506;-2.750;2023-05-24T14:44:05;16.70;56.30
75621;DHT22;64574;48.506;-2.750;2023-05-24T14:46:31;16.60;55.40
75621;DHT22;64574;48.506;-2.750;2023-05-24T14:48:57;16.60;55.80
75621;DHT22;64574;48.506;-2.750;2023-05-24T14:51:22;16.70;56.80
75621;DHT22;64574;48.506;-2.750;2023-05-24T14:53:48;16.50;56.50
75621;DHT22;64574;48.506;-2.750;2023-05-24T14:56:14;16.50;56.00
75621;DHT22;64574;48.506;-2.750;2023-05-24T14:58:41;16.80;55.60
75621;DHT22;64574;48.506;-2.750;2023-05-24T15:01:07;16.80;56.00
75621;DHT22;64574;48.506;-2.750;2023-05-24T15:03:33;16.80;55.70
75621;DHT22;64574;48.506;-2.750;2023-05-24T15:05:59;16.90;56.20
75621;DHT22;64574;48.506;-2.750;2023-05-24T15:08:25;16.90;55.30
75621;DHT22;64574;48.506;-2.750;2023-05-24T15:10:51;16.70;55.70
75621;DHT22;64574;48.506;-2.750;2023-05-24T15:13:17;16.50;55.30
75621;DHT22;64574;48.506;-2.750;2023-05-24T15:15:43;16.60;55.30
75621;DHT22;64574;48.506;-2.750;2023-05-24T15:18:09;16.60;55.60
75621;DHT22;64574;48.506;-2.750;2023-05-24T15:20:35;16.80;55.50
75621;DHT22;64574;48.506;-2.750;2023-05-24T15:23:01;16.80;55.20
75621;DHT22;64574;48.506;-2.750;2023-05-24T15:25:27;16.80;54.50
75621;DHT22;64574;48.506;-2.750;2023-05-24T15:27:53;16.90;54.70
75621;DHT22;64574;48.506;-2.750;2023-05-24T15:30:19;16.90;55.10
75621;DHT22;64574;48.506;-2.750;2023-05-24T15:32:45;16.90;55.00
75621;DHT22;64574;48.506;-2.750;2023-05-24T15:35:11;17.00;55.00
75621;DHT22;64574;48.506;-2.750;2023-05-24T15:37:37;17.00;55.10
75621;DHT22;64574;48.506;-2.750;2023-05-24T15:40:04;17.20;55.60